Time;durP1;ratioP1;P1;durP2;ratioP2;P2;SDS_P1;SDS_P2;PMS_P1;PMS_P2;Temp;Humidity;BMP_temperature;BMP_pressure;BME280_temperature;BME280_humidity;BME280_pressure;Samples;Min_cycle;Max_cycle;Signal;HPM_P1;HPM_P2
2023/09/23 00:00:24;;;;;;;;;;;12.90;99.90;;;;;;5009828;28;19969;-83
2023/09/23 00:02:50;;;;;;;;;;;12.90;99.90;;;;;;5011092;28;19956;-83
2023/09/23 00:05:16;;;;;;;;;;;12.80;99.90;;;;;;5021302;28;19976;-83
2023/09/23 00:07:42;;;;;;;;;;;12.80;99.90;;;;;;5004664;28;19928;-83
2023/09/23 00:10:11;;;;;;;;;;;12.80;99.90;;;;;;4993107;28;19992;-83
2023/09/23 00:12:38;;;;;;;;;;;12.70;99.90;;;;;;5001889;27;19920;-83
2023/09/23 00:15:05;;;;;;;;;;;12.70;99.90;;;;;;5016213;28;20008;-83
2023/09/23 00:17:31;;;;;;;;;;;12.70;99.90;;;;;;5005652;27;21091;-83
2023/09/23 00:19:57;;;;;;;;;;;12.70;99.90;;;;;;4994719;28;19968;-83
2023/09/23 00:22:23;;;;;;;;;;;12.60;99.90;;;;;;4999153;28;20723;-83
2023/09/23 00:24:50;;;;;;;;;;;12.60;99.90;;;;;;5023529;28;19925;-83
2023/09/23 00:27:17;;;;;;;;;;;12.60;99.90;;;;;;5032182;28;20325;-84
2023/09/23 00:29:44;;;;;;;;;;;12.60;99.90;;;;;;5049464;27;19971;-83
2023/09/23 00:32:12;;;;;;;;;;;12.50;99.90;;;;;;5020272;28;19959;-83
2023/09/23 00:34:38;;;;;;;;;;;12.50;99.90;;;;;;5005671;28;19921;-84
2023/09/23 00:37:04;;;;;;;;;;;12.50;99.90;;;;;;5018443;28;19921;-84
2023/09/23 00:39:30;;;;;;;;;;;12.40;99.90;;;;;;5005146;28;20015;-83
2023/09/23 00:41:55;;;;;;;;;;;12.40;99.90;;;;;;5009971;28;19929;-83
2023/09/23 00:44:21;;;;;;;;;;;12.40;99.90;;;;;;5013120;28;20363;-84
2023/09/23 00:46:50;;;;;;;;;;;12.40;99.90;;;;;;5007717;28;20296;-80
2023/09/23 00:49:16;;;;;;;;;;;12.40;99.90;;;;;;5010764;28;19929;-78
2023/09/23 00:51:42;;;;;;;;;;;12.50;99.90;;;;;;5026832;28;19935;-78
2023/09/23 00:54:08;;;;;;;;;;;12.60;99.90;;;;;;4992326;28;20314;-79
2023/09/23 00:56:36;;;;;;;;;;;12.50;99.90;;;;;;5000745;28;20642;-78
2023/09/23 00:59:04;;;;;;;;;;;12.50;99.90;;;;;;4995523;28;19928;-78
2023/09/23 01:01:32;;;;;;;;;;;12.50;99.90;;;;;;5004064;28;19924;-77
2023/09/23 01:03:58;;;;;;;;;;;12.50;99.90;;;;;;5016733;28;20098;-77
2023/09/23 01:06:27;;;;;;;;;;;12.50;99.90;;;;;;5024385;28;19950;-77
2023/09/23 01:08:54;;;;;;;;;;;12.50;99.90;;;;;;5006119;28;19921;-77
2023/09/23 01:11:20;;;;;;;;;;;12.50;99.90;;;;;;5021703;28;19927;-77
2023/09/23 01:13:49;;;;;;;;;;;12.50;99.90;;;;;;4995377;28;19921;-77
2023/09/23 01:16:18;;;;;;;;;;;12.60;99.90;;;;;;5005765;28;20401;-77
2023/09/23 01:18:45;;;;;;;;;;;12.50;99.90;;;;;;5016621;28;19921;-77
2023/09/23 01:21:11;;;;;;;;;;;12.50;99.90;;;;;;5005609;28;19921;-77
2023/09/23 01:23:39;;;;;;;;;;;12.60;99.90;;;;;;5010853;28;20039;-77
2023/09/23 01:26:05;;;;;;;;;;;12.60;99.90;;;;;;5008000;28;19921;-78
2023/09/23 01:28:32;;;;;;;;;;;12.60;99.90;;;;;;5071165;27;20018;-78
2023/09/23 01:31:01;;;;;;;;;;;12.60;99.90;;;;;;5008790;28;19924;-78
2023/09/23 01:33:27;;;;;;;;;;;12.60;99.90;;;;;;5020947;28;20362;-85
2023/09/23 01:35:57;;;;;;;;;;;12.50;99.90;;;;;;5005802;28;19921;-85
2023/09/23 01:38:25;;;;;;;;;;;12.60;99.90;;;;;;5010753;28;19927;-86
2023/09/23 01:40:51;;;;;;;;;;;12.50;99.90;;;;;;5022505;28;19945;-85
2023/09/23 01:43:17;;;;;;;;;;;12.60;99.90;;;;;;5002097;28;19921;-85
2023/09/23 01:45:44;;;;;;;;;;;12.60;99.90;;;;;;5005709;28;19921;-86
2023/09/23 01:48:10;;;;;;;;;;;12.50;99.90;;;;;;5008660;28;20371;-86
2023/09/23 01:50:35;;;;;;;;;;;12.50;99.90;;;;;;5002193;28;19931;-84
2023/09/23 01:53:01;;;;;;;;;;;12.50;99.90;;;;;;5005969;28;20294;-85
2023/09/23 01:55:27;;;;;;;;;;;12.50;99.90;;;;;;5006199;27;20015;-86
2023/09/23 01:57:53;;;;;;;;;;;12.50;99.90;;;;;;5005761;28;20016;-79
2023/09/23 02:00:24;;;;;;;;;;;12.50;99.90;;;;;;5004546;28;19996;-79
2023/09/23 02:02:53;;;;;;;;;;;12.50;99.90;;;;;;5016695;28;19929;-78
2023/09/23 02:05:20;;;;;;;;;;;12.40;99.90;;;;;;5012299;27;21751;-79
2023/09/23 02:07:48;;;;;;;;;;;12.40;99.90;;;;;;5005081;27;19967;-80
2023/09/23 02:10:14;;;;;;;;;;;12.40;99.90;;;;;;5010641;28;19925;-78
2023/09/23 02:12:44;;;;;;;;;;;12.40;99.90;;;;;;5017082;28;20593;-77
2023/09/23 02:15:10;;;;;;;;;;;12.40;99.90;;;;;;5007529;28;20442;-77
2023/09/23 02:17:36;;;;;;;;;;;12.40;99.90;;;;;;5018120;28;19929;-78
2023/09/23 02:20:11;;;;;;;;;;;12.40;99.90;;;;;;5004957;28;19981;-84
2023/09/23 02:22:37;;;;;;;;;;;12.40;99.90;;;;;;5021908;28;20363;-84
2023/09/23 02:25:07;;;;;;;;;;;12.30;99.90;;;;;;5008226;28;20271;-84
2023/09/23 02:27:33;;;;;;;;;;;12.30;99.90;;;;;;5004166;28;19951;-83
2023/09/23 02:30:05;;;;;;;;;;;12.30;99.90;;;;;;5020280;27;19925;-84
2023/09/23 02:32:30;;;;;;;;;;;12.20;99.90;;;;;;5006105;28;19983;-85
2023/09/23 02:34:56;;;;;;;;;;;12.20;99.90;;;;;;4997980;28;20189;-84
2023/09/23 02:37:26;;;;;;;;;;;12.10;99.90;;;;;;5020033;28;19931;-85
2023/09/23 02:39:52;;;;;;;;;;;12.10;99.90;;;;;;5001561;28;19928;-86
2023/09/23 02:42:18;;;;;;;;;;;12.00;99.90;;;;;;5032377;28;19920;-85
2023/09/23 02:44:43;;;;;;;;;;;12.00;99.90;;;;;;5004631;28;19921;-85
2023/09/23 02:47:09;;;;;;;;;;;11.90;99.90;;;;;;5005884;28;19929;-85
2023/09/23 02:49:35;;;;;;;;;;;11.90;99.90;;;;;;5005437;28;20140;-85
2023/09/23 02:52:01;;;;;;;;;;;11.90;99.90;;;;;;5010553;28;20039;-85
2023/09/23 02:54:29;;;;;;;;;;;11.90;99.90;;;;;;5025547;28;19921;-85
2023/09/23 02:56:55;;;;;;;;;;;11.80;99.90;;;;;;5014773;28;20469;-78
2023/09/23 02:59:29;;;;;;;;;;;11.80;99.90;;;;;;5006240;28;20989;-85
2023/09/23 03:01:57;;;;;;;;;;;11.80;99.90;;;;;;5021534;28;20376;-77
2023/09/23 03:04:23;;;;;;;;;;;11.80;99.90;;;;;;5003378;28;20475;-77
2023/09/23 03:06:50;;;;;;;;;;;11.70;99.90;;;;;;5018676;28;20012;-77
2023/09/23 03:09:20;;;;;;;;;;;11.70;99.90;;;;;;5005043;28;19946;-77
2023/09/23 03:11:53;;;;;;;;;;;11.70;99.90;;;;;;5004852;28;19921;-77
2023/09/23 03:14:22;;;;;;;;;;;11.60;99.90;;;;;;5021559;28;19921;-76
2023/09/23 03:16:50;;;;;;;;;;;11.60;99.90;;;;;;5005015;27;20337;-77
2023/09/23 03:19:22;;;;;;;;;;;11.60;99.90;;;;;;5003448;28;19924;-84
2023/09/23 03:21:50;;;;;;;;;;;11.60;99.90;;;;;;5010467;28;19935;-84
2023/09/23 03:24:15;;;;;;;;;;;11.60;99.90;;;;;;5020036;28;20235;-84
2023/09/23 03:26:41;;;;;;;;;;;11.60;99.90;;;;;;5020437;28;19931;-77
2023/09/23 03:29:08;;;;;;;;;;;11.50;99.90;;;;;;5004342;28;19920;-77
2023/09/23 03:31:34;;;;;;;;;;;11.50;99.90;;;;;;5014735;28;19927;-77
2023/09/23 03:34:03;;;;;;;;;;;11.50;99.90;;;;;;5019716;28;19928;-76
2023/09/23 03:36:31;;;;;;;;;;;11.50;99.90;;;;;;5023098;28;19929;-84
2023/09/23 03:38:57;;;;;;;;;;;11.50;99.90;;;;;;5019982;28;19927;-85
2023/09/23 03:41:23;;;;;;;;;;;11.40;99.90;;;;;;5008973;28;19925;-84
2023/09/23 03:43:48;;;;;;;;;;;11.40;99.90;;;;;;5007120;28;19973;-83
2023/09/23 03:46:16;;;;;;;;;;;11.40;99.90;;;;;;5005913;28;19925;-77
2023/09/23 03:48:43;;;;;;;;;;;11.40;99.90;;;;;;5009569;28;20255;-77
2023/09/23 03:51:09;;;;;;;;;;;11.30;99.90;;;;;;5013277;27;19921;-76
2023/09/23 03:53:38;;;;;;;;;;;11.30;99.90;;;;;;5022072;28;19931;-77
2023/09/23 03:56:05;;;;;;;;;;;11.30;99.90;;;;;;5017897;28;20001;-77
2023/09/23 03:58:31;;;;;;;;;;;11.30;99.90;;;;;;5001369;27;19968;-77
2023/09/23 04:01:00;;;;;;;;;;;11.30;99.90;;;;;;5008469;28;19968;-77
2023/09/23 04:03:26;;;;;;;;;;;11.30;99.90;;;;;;5002763;28;19921;-77
2023/09/23 04:05:54;;;;;;;;;;;11.20;99.90;;;;;;5000144;28;19964;-76
2023/09/23 04:08:20;;;;;;;;;;;11.20;99.90;;;;;;5006372;28;19921;-76
2023/09/23 04:10:45;;;;;;;;;;;11.20;99.90;;;;;;5027244;28;20212;-77
2023/09/23 04:13:14;;;;;;;;;;;11.20;99.90;;;;;;5009342;28;19975;-77
2023/09/23 04:15:40;;;;;;;;;;;11.20;99.90;;;;;;5012638;28;19955;-77
2023/09/23 04:18:06;;;;;;;;;;;11.20;99.90;;;;;;4998123;28;20325;-77
2023/09/23 04:20:32;;;;;;;;;;;11.20;99.90;;;;;;5023539;28;19924;-77
2023/09/23 04:22:57;;;;;;;;;;;11.20;99.90;;;;;;5005622;28;19921;-77
2023/09/23 04:25:23;;;;;;;;;;;11.20;99.90;;;;;;5008459;27;19939;-78
2023/09/23 04:27:49;;;;;;;;;;;11.20;99.90;;;;;;4995123;28;19927;-76
2023/09/23 04:30:15;;;;;;;;;;;11.20;99.90;;;;;;5006228;28;20436;-76
2023/09/23 04:32:41;;;;;;;;;;;11.20;99.90;;;;;;5011272;28;20016;-76
2023/09/23 04:35:11;;;;;;;;;;;11.10;99.90;;;;;;5000562;27;19920;-76
2023/09/23 04:37:37;;;;;;;;;;;11.10;99.90;;;;;;5013817;28;19921;-76
2023/09/23 04:40:06;;;;;;;;;;;11.10;99.90;;;;;;5037848;27;19931;-76
2023/09/23 04:42:31;;;;;;;;;;;11.10;99.90;;;;;;5002158;28;20011;-77
2023/09/23 04:44:58;;;;;;;;;;;11.10;99.90;;;;;;5021513;28;20027;-76
2023/09/23 04:47:23;;;;;;;;;;;11.10;99.90;;;;;;5025127;28;20216;-76
2023/09/23 04:49:49;;;;;;;;;;;11.00;99.90;;;;;;5021563;28;20003;-85
2023/09/23 04:52:15;;;;;;;;;;;11.00;99.90;;;;;;5003315;28;19928;-85
2023/09/23 04:54:42;;;;;;;;;;;11.00;99.90;;;;;;5009685;28;20015;-85
2023/09/23 04:57:10;;;;;;;;;;;11.00;99.90;;;;;;5011231;28;19943;-85
2023/09/23 04:59:36;;;;;;;;;;;11.00;99.90;;;;;;5008658;28;19939;-85
2023/09/23 05:02:03;;;;;;;;;;;11.00;99.90;;;;;;5011563;28;19921;-79
2023/09/23 05:04:29;;;;;;;;;;;11.00;99.90;;;;;;5006617;28;19925;-79
2023/09/23 05:06:56;;;;;;;;;;;10.90;99.90;;;;;;5049114;27;19919;-76
2023/09/23 05:09:22;;;;;;;;;;;10.90;99.90;;;;;;5009093;28;20010;-77
2023/09/23 05:11:47;;;;;;;;;;;10.90;99.90;;;;;;5015725;28;19925;-78
2023/09/23 05:14:16;;;;;;;;;;;10.90;99.90;;;;;;5020372;28;20553;-78
2023/09/23 05:16:42;;;;;;;;;;;10.90;99.90;;;;;;5018446;28;19925;-78
2023/09/23 05:19:11;;;;;;;;;;;10.80;99.90;;;;;;5004105;28;19974;-77
2023/09/23 05:21:37;;;;;;;;;;;10.80;99.90;;;;;;5006097;28;19977;-77
2023/09/23 05:24:02;;;;;;;;;;;10.80;99.90;;;;;;4998637;28;19925;-78
2023/09/23 05:26:28;;;;;;;;;;;10.80;99.90;;;;;;5012564;28;19925;-77
2023/09/23 05:28:53;;;;;;;;;;;10.80;99.90;;;;;;5018481;28;20031;-77
2023/09/23 05:31:19;;;;;;;;;;;10.80;99.90;;;;;;5008005;28;19921;-85
2023/09/23 05:33:45;;;;;;;;;;;10.80;99.90;;;;;;5004400;28;19929;-86
2023/09/23 05:36:10;;;;;;;;;;;10.80;99.90;;;;;;5008627;28;20032;-78
2023/09/23 05:38:36;;;;;;;;;;;10.80;99.90;;;;;;5008169;28;19973;-78
2023/09/23 05:41:02;;;;;;;;;;;10.90;99.90;;;;;;5008018;28;19921;-78
2023/09/23 05:43:29;;;;;;;;;;;10.90;99.90;;;;;;5011783;28;19921;-78
2023/09/23 05:45:54;;;;;;;;;;;10.90;99.90;;;;;;5011495;28;19928;-78
2023/09/23 05:48:20;;;;;;;;;;;10.90;99.90;;;;;;5004695;28;19921;-78
2023/09/23 05:50:46;;;;;;;;;;;11.00;99.90;;;;;;5015715;27;20397;-77
2023/09/23 05:53:12;;;;;;;;;;;11.00;99.90;;;;;;5018107;28;19924;-78
2023/09/23 05:55:40;;;;;;;;;;;11.10;99.90;;;;;;5035768;27;19943;-79
2023/09/23 05:58:06;;;;;;;;;;;11.00;99.90;;;;;;5015089;28;19929;-78
2023/09/23 06:00:31;;;;;;;;;;;11.10;99.90;;;;;;5054065;27;19926;-77
2023/09/23 06:02:57;;;;;;;;;;;11.10;99.90;;;;;;5019257;28;19920;-79
2023/09/23 06:05:23;;;;;;;;;;;11.10;99.90;;;;;;5011009;28;20004;-79
2023/09/23 06:07:49;;;;;;;;;;;11.20;99.90;;;;;;5014080;28;19928;-78
2023/09/23 06:10:15;;;;;;;;;;;11.20;99.90;;;;;;5012653;28;19929;-79
2023/09/23 06:12:40;;;;;;;;;;;11.20;99.90;;;;;;5007999;27;19924;-78
2023/09/23 06:15:07;;;;;;;;;;;11.20;99.90;;;;;;5009106;28;19974;-78
2023/09/23 06:17:32;;;;;;;;;;;11.20;99.90;;;;;;5008532;28;19921;-79
2023/09/23 06:20:02;;;;;;;;;;;11.20;99.90;;;;;;5016677;28;19997;-80
2023/09/23 06:22:27;;;;;;;;;;;11.20;99.90;;;;;;5007011;28;19921;-78
2023/09/23 06:24:54;;;;;;;;;;;11.30;99.90;;;;;;5005872;28;19931;-78
2023/09/23 06:27:19;;;;;;;;;;;11.30;99.90;;;;;;5001480;27;20375;-78
2023/09/23 06:29:45;;;;;;;;;;;11.30;99.90;;;;;;5017394;28;19978;-78
2023/09/23 06:32:14;;;;;;;;;;;11.40;99.90;;;;;;5007831;28;19925;-78
2023/09/23 06:34:40;;;;;;;;;;;11.40;99.90;;;;;;5000364;28;20347;-78
2023/09/23 06:37:05;;;;;;;;;;;11.40;99.90;;;;;;4992610;28;19932;-78
2023/09/23 06:39:31;;;;;;;;;;;11.40;99.90;;;;;;5011881;28;20361;-79
2023/09/23 06:41:57;;;;;;;;;;;11.50;99.90;;;;;;5014718;28;19921;-79
2023/09/23 06:44:22;;;;;;;;;;;11.50;99.90;;;;;;5011343;28;19932;-78
2023/09/23 06:46:50;;;;;;;;;;;11.60;99.90;;;;;;5014883;28;19921;-77
2023/09/23 06:49:16;;;;;;;;;;;11.70;99.90;;;;;;5003118;28;20421;-78
2023/09/23 06:51:42;;;;;;;;;;;11.70;99.90;;;;;;5009136;28;20423;-78
2023/09/23 06:54:08;;;;;;;;;;;11.80;99.90;;;;;;5006624;28;19924;-78
2023/09/23 06:56:44;;;;;;;;;;;11.80;99.90;;;;;;5018545;28;20368;-79
2023/09/23 06:59:10;;;;;;;;;;;11.80;99.90;;;;;;5005044;28;19925;-78
2023/09/23 07:01:36;;;;;;;;;;;11.90;99.90;;;;;;5005028;28;19921;-79
2023/09/23 07:04:02;;;;;;;;;;;11.90;99.90;;;;;;5016735;28;19947;-78
2023/09/23 07:06:28;;;;;;;;;;;11.90;99.90;;;;;;5001886;28;20135;-78
2023/09/23 07:08:53;;;;;;;;;;;12.00;99.90;;;;;;5006195;28;19921;-78
2023/09/23 07:11:19;;;;;;;;;;;12.00;99.90;;;;;;5010401;27;20009;-78
2023/09/23 07:13:46;;;;;;;;;;;11.90;99.90;;;;;;5007401;28;19920;-78
2023/09/23 07:16:12;;;;;;;;;;;12.00;99.90;;;;;;5013740;27;19928;-78
2023/09/23 07:18:37;;;;;;;;;;;12.00;99.90;;;;;;5001175;28;19973;-79
2023/09/23 07:21:03;;;;;;;;;;;12.10;99.90;;;;;;5005931;28;19921;-78
2023/09/23 07:23:28;;;;;;;;;;;12.10;99.90;;;;;;5006238;28;20346;-78
2023/09/23 07:25:54;;;;;;;;;;;12.10;99.90;;;;;;5012107;28;19931;-77
2023/09/23 07:28:20;;;;;;;;;;;12.20;99.90;;;;;;5022734;28;19929;-78
2023/09/23 07:30:49;;;;;;;;;;;12.30;99.90;;;;;;5025891;28;19963;-77
2023/09/23 07:33:14;;;;;;;;;;;12.30;99.90;;;;;;5007403;28;20366;-76
2023/09/23 07:35:40;;;;;;;;;;;12.40;99.90;;;;;;5019978;28;19925;-75
2023/09/23 07:38:05;;;;;;;;;;;12.50;99.90;;;;;;5008308;28;19925;-77
2023/09/23 07:40:31;;;;;;;;;;;12.60;99.90;;;;;;5006735;28;19921;-76
2023/09/23 07:42:57;;;;;;;;;;;12.70;99.90;;;;;;5008670;28;19928;-75
2023/09/23 07:45:23;;;;;;;;;;;12.80;99.90;;;;;;5007361;28;19924;-76
2023/09/23 07:47:49;;;;;;;;;;;12.80;99.90;;;;;;5005720;28;19951;-75
2023/09/23 07:50:15;;;;;;;;;;;12.90;99.90;;;;;;5024256;28;20291;-75
2023/09/23 07:52:43;;;;;;;;;;;13.00;99.90;;;;;;5007014;28;19927;-75
2023/09/23 07:55:10;;;;;;;;;;;13.20;99.90;;;;;;5008971;28;19924;-75
2023/09/23 07:57:36;;;;;;;;;;;13.30;99.90;;;;;;5011292;28;20421;-76
2023/09/23 08:00:02;;;;;;;;;;;13.40;99.90;;;;;;5029054;28;19921;-76
2023/09/23 08:02:29;;;;;;;;;;;13.50;99.90;;;;;;5005817;28;19921;-76
2023/09/23 08:04:54;;;;;;;;;;;13.70;99.90;;;;;;5006039;28;19971;-76
2023/09/23 08:07:20;;;;;;;;;;;13.70;99.90;;;;;;5024910;28;20251;-75
2023/09/23 08:09:45;;;;;;;;;;;13.80;99.90;;;;;;5006407;28;20358;-76
2023/09/23 08:12:11;;;;;;;;;;;13.90;99.90;;;;;;5026470;28;19925;-75
2023/09/23 08:14:40;;;;;;;;;;;13.90;99.90;;;;;;5009393;28;20004;-75
2023/09/23 08:17:06;;;;;;;;;;;14.00;99.90;;;;;;5009766;28;19925;-76
2023/09/23 08:19:31;;;;;;;;;;;14.20;99.90;;;;;;5008658;28;19929;-77
2023/09/23 08:21:57;;;;;;;;;;;14.30;99.90;;;;;;5007571;28;20358;-76
2023/09/23 08:24:22;;;;;;;;;;;14.30;99.90;;;;;;5032929;28;19925;-76
2023/09/23 08:26:48;;;;;;;;;;;14.40;99.90;;;;;;5023293;28;20267;-75
2023/09/23 08:29:14;;;;;;;;;;;14.30;99.90;;;;;;5015347;28;19924;-77
2023/09/23 08:31:40;;;;;;;;;;;14.30;99.90;;;;;;5005922;28;19951;-76
2023/09/23 08:34:09;;;;;;;;;;;14.30;99.90;;;;;;5036241;27;19924;-76
2023/09/23 08:36:37;;;;;;;;;;;14.20;99.90;;;;;;5005604;28;20016;-76
2023/09/23 08:39:07;;;;;;;;;;;14.30;99.90;;;;;;5021899;28;19973;-76
2023/09/23 08:41:36;;;;;;;;;;;14.30;99.90;;;;;;5005851;28;20020;-76
2023/09/23 08:44:07;;;;;;;;;;;14.30;99.90;;;;;;5007782;28;20310;-76
2023/09/23 08:46:33;;;;;;;;;;;14.30;99.90;;;;;;5008980;28;19921;-77
2023/09/23 08:48:59;;;;;;;;;;;14.20;99.90;;;;;;5009365;28;19931;-76
2023/09/23 08:51:27;;;;;;;;;;;14.20;99.90;;;;;;5005169;28;21187;-75
2023/09/23 08:53:54;;;;;;;;;;;14.30;99.90;;;;;;5024221;28;20537;-76
2023/09/23 08:56:20;;;;;;;;;;;14.40;99.90;;;;;;5006515;28;19928;-76
2023/09/23 08:58:48;;;;;;;;;;;14.50;99.90;;;;;;5007705;28;19921;-76
2023/09/23 09:01:14;;;;;;;;;;;14.70;99.90;;;;;;5005821;28;19952;-76
2023/09/23 09:03:39;;;;;;;;;;;14.80;99.90;;;;;;5010127;28;20286;-75
2023/09/23 09:06:17;;;;;;;;;;;15.00;99.90;;;;;;5019970;28;19929;-74
2023/09/23 09:08:43;;;;;;;;;;;15.20;99.90;;;;;;5021663;28;20390;-76
2023/09/23 09:11:09;;;;;;;;;;;15.50;99.90;;;;;;5034203;28;19924;-75
2023/09/23 09:13:36;;;;;;;;;;;15.60;99.90;;;;;;5008778;28;19920;-75
2023/09/23 09:16:05;;;;;;;;;;;15.70;99.90;;;;;;5019017;28;19924;-76
2023/09/23 09:18:31;;;;;;;;;;;15.80;99.90;;;;;;5006336;28;20398;-76
2023/09/23 09:20:57;;;;;;;;;;;15.80;99.90;;;;;;5006022;28;19952;-74
2023/09/23 09:23:29;;;;;;;;;;;15.90;99.90;;;;;;4972458;28;20325;-75
2023/09/23 09:25:55;;;;;;;;;;;16.00;99.90;;;;;;4976165;28;19928;-75
2023/09/23 09:28:20;;;;;;;;;;;16.20;99.90;;;;;;4989790;28;19921;-75
2023/09/23 09:30:53;;;;;;;;;;;16.40;99.90;;;;;;4982979;28;19928;-75
2023/09/23 09:33:19;;;;;;;;;;;16.60;99.90;;;;;;4985915;28;20367;-74
2023/09/23 09:35:46;;;;;;;;;;;16.80;99.90;;;;;;4983958;28;19922;-75
2023/09/23 09:38:13;;;;;;;;;;;16.80;99.90;;;;;;4982740;28;19925;-76
2023/09/23 09:40:39;;;;;;;;;;;16.80;99.90;;;;;;4988485;28;20020;-75
2023/09/23 09:43:05;;;;;;;;;;;16.60;99.90;;;;;;4987011;28;20605;-76
2023/09/23 09:45:40;;;;;;;;;;;16.30;99.90;;;;;;4991442;28;19949;-75
2023/09/23 09:48:08;;;;;;;;;;;16.10;99.90;;;;;;4998522;28;19922;-74
2023/09/23 09:50:39;;;;;;;;;;;16.00;99.90;;;;;;4983278;28;19932;-74
2023/09/23 09:53:05;;;;;;;;;;;15.90;99.90;;;;;;4982379;28;20013;-75
2023/09/23 09:55:31;;;;;;;;;;;16.00;99.90;;;;;;4990158;28;19926;-78
2023/09/23 09:57:57;;;;;;;;;;;16.00;99.90;;;;;;4980128;28;19929;-74
2023/09/23 10:00:30;;;;;;;;;;;16.10;99.90;;;;;;4975360;28;19925;-74
2023/09/23 10:03:05;;;;;;;;;;;16.20;99.90;;;;;;4985348;28;19925;-75
2023/09/23 10:05:53;;;;;;;;;;;16.10;99.90;;;;;;4994670;28;19922;-75
2023/09/23 10:08:24;;;;;;;;;;;16.10;99.90;;;;;;4993785;28;19921;-73
2023/09/23 10:10:51;;;;;;;;;;;16.20;99.90;;;;;;4975561;28;19921;-76
2023/09/23 10:13:18;;;;;;;;;;;16.50;99.90;;;;;;4975490;28;20448;-75
2023/09/23 10:15:44;;;;;;;;;;;16.60;99.90;;;;;;4978888;28;20280;-76
2023/09/23 10:18:11;;;;;;;;;;;16.70;99.90;;;;;;4977125;28;19925;-75
2023/09/23 10:20:39;;;;;;;;;;;16.60;99.90;;;;;;4978450;28;19987;-76
2023/09/23 10:23:06;;;;;;;;;;;16.40;99.90;;;;;;4990089;28;19986;-76
2023/09/23 10:25:43;;;;;;;;;;;16.40;99.90;;;;;;4990421;28;20013;-76
2023/09/23 10:28:22;;;;;;;;;;;16.30;99.90;;;;;;4968880;28;19922;-76
2023/09/23 10:31:00;;;;;;;;;;;16.30;99.90;;;;;;4990953;28;20443;-76
2023/09/23 10:33:27;;;;;;;;;;;16.20;99.90;;;;;;4976584;28;19971;-76
2023/09/23 10:35:53;;;;;;;;;;;16.20;99.90;;;;;;4990544;28;20343;-76
2023/09/23 10:38:26;;;;;;;;;;;16.20;99.90;;;;;;4986604;28;20319;-76
2023/09/23 10:40:52;;;;;;;;;;;16.30;99.90;;;;;;4991874;28;20392;-77
2023/09/23 10:43:18;;;;;;;;;;;16.40;99.90;;;;;;4985559;28;19922;-77
2023/09/23 10:45:44;;;;;;;;;;;16.40;99.90;;;;;;4977325;28;20467;-77
2023/09/23 10:48:10;;;;;;;;;;;16.40;99.90;;;;;;4968258;28;20016;-77
2023/09/23 10:50:35;;;;;;;;;;;16.40;99.90;;;;;;4983419;28;20290;-76
2023/09/23 10:53:01;;;;;;;;;;;16.30;99.90;;;;;;4988634;28;19930;-76
2023/09/23 10:55:27;;;;;;;;;;;16.30;99.90;;;;;;4973489;28;20008;-76
2023/09/23 10:57:53;;;;;;;;;;;16.20;99.90;;;;;;4988560;28;20313;-76
2023/09/23 11:00:20;;;;;;;;;;;16.20;99.90;;;;;;4973800;28;20398;-76
2023/09/23 11:02:52;;;;;;;;;;;16.20;99.90;;;;;;4973093;28;19930;-76
2023/09/23 11:05:20;;;;;;;;;;;16.20;99.90;;;;;;4995176;28;20414;-76
2023/09/23 11:07:46;;;;;;;;;;;16.30;99.90;;;;;;4971267;28;19973;-76
2023/09/23 11:10:12;;;;;;;;;;;16.20;99.90;;;;;;4983569;28;19961;-75
2023/09/23 11:12:41;;;;;;;;;;;16.30;99.90;;;;;;4978509;28;20013;-75
2023/09/23 11:15:08;;;;;;;;;;;16.40;99.90;;;;;;4982243;28;19921;-77
2023/09/23 11:17:34;;;;;;;;;;;16.50;99.90;;;;;;4986809;28;19928;-77
2023/09/23 11:20:00;;;;;;;;;;;16.60;99.90;;;;;;4970069;28;20334;-76
2023/09/23 11:22:30;;;;;;;;;;;16.60;99.90;;;;;;5019048;28;19924;-77
2023/09/23 11:24:56;;;;;;;;;;;16.60;99.90;;;;;;5020278;28;20290;-76
2023/09/23 11:27:23;;;;;;;;;;;16.60;99.90;;;;;;5017916;28;19924;-76
2023/09/23 11:29:49;;;;;;;;;;;16.60;99.90;;;;;;5006133;28;20375;-76
2023/09/23 11:32:19;;;;;;;;;;;16.60;99.90;;;;;;5003236;28;19939;-76
2023/09/23 11:34:44;;;;;;;;;;;16.60;99.90;;;;;;5001220;28;19940;-76
2023/09/23 11:37:10;;;;;;;;;;;16.60;99.90;;;;;;5021371;28;19925;-76
2023/09/23 11:39:37;;;;;;;;;;;16.70;99.90;;;;;;5032052;28;20020;-75
2023/09/23 11:42:03;;;;;;;;;;;16.70;99.90;;;;;;5004592;28;20462;-76
2023/09/23 11:44:29;;;;;;;;;;;16.70;99.90;;;;;;5015936;27;20011;-76
2023/09/23 11:46:55;;;;;;;;;;;16.70;99.90;;;;;;5028280;28;20007;-75
2023/09/23 11:49:20;;;;;;;;;;;16.70;99.90;;;;;;5020464;28;19920;-76
2023/09/23 11:51:46;;;;;;;;;;;16.70;99.90;;;;;;5004327;28;19948;-75
2023/09/23 11:54:12;;;;;;;;;;;16.80;99.90;;;;;;5006372;28;19925;-76
2023/09/23 11:56:37;;;;;;;;;;;17.00;99.90;;;;;;5022369;28;20446;-76
2023/09/23 11:59:03;;;;;;;;;;;17.10;99.90;;;;;;5024475;27;20015;-77
2023/09/23 12:01:29;;;;;;;;;;;17.10;99.90;;;;;;5021514;28;19963;-76
2023/09/23 12:03:58;;;;;;;;;;;17.20;99.90;;;;;;5021930;28;19947;-76
2023/09/23 12:06:34;;;;;;;;;;;17.30;99.90;;;;;;5025350;27;20311;-76
2023/09/23 12:09:03;;;;;;;;;;;17.50;99.90;;;;;;5007451;28;19921;-77
2023/09/23 12:11:29;;;;;;;;;;;17.60;99.90;;;;;;5008359;28;20221;-76
2023/09/23 12:13:54;;;;;;;;;;;17.80;99.90;;;;;;5021581;28;19921;-76
2023/09/23 12:16:20;;;;;;;;;;;17.80;99.90;;;;;;5009244;28;19969;-77
2023/09/23 12:18:48;;;;;;;;;;;17.80;99.90;;;;;;5033099;28;20472;-76
2023/09/23 12:21:14;;;;;;;;;;;17.70;99.90;;;;;;5025003;28;20294;-76
2023/09/23 12:23:40;;;;;;;;;;;17.60;99.90;;;;;;5019125;28;19948;-75
2023/09/23 12:26:06;;;;;;;;;;;17.50;99.90;;;;;;5022300;28;19920;-76
2023/09/23 12:28:32;;;;;;;;;;;17.40;99.90;;;;;;5005007;28;19927;-80
2023/09/23 12:30:57;;;;;;;;;;;17.10;99.90;;;;;;5026612;28;20327;-84
2023/09/23 12:33:23;;;;;;;;;;;17.00;99.90;;;;;;5028199;27;19925;-82
2023/09/23 12:35:48;;;;;;;;;;;16.80;99.90;;;;;;5022601;28;20043;-83
2023/09/23 12:38:14;;;;;;;;;;;16.50;99.90;;;;;;5007484;28;20284;-83
2023/09/23 12:40:40;;;;;;;;;;;16.40;99.90;;;;;;5021917;28;19928;-83
2023/09/23 12:43:05;;;;;;;;;;;16.40;99.90;;;;;;5006915;28;19928;-84
2023/09/23 12:45:31;;;;;;;;;;;16.40;99.90;;;;;;5007064;28;19969;-83
2023/09/23 12:47:57;;;;;;;;;;;16.50;99.90;;;;;;5018804;28;19929;-84
2023/09/23 12:50:22;;;;;;;;;;;16.70;99.90;;;;;;5008007;28;19925;-84
2023/09/23 12:52:48;;;;;;;;;;;16.80;99.90;;;;;;5007034;28;19925;-84
2023/09/23 12:55:14;;;;;;;;;;;16.90;99.90;;;;;;5007768;28;20131;-81
2023/09/23 12:57:40;;;;;;;;;;;17.00;99.90;;;;;;5006372;28;19928;-82
2023/09/23 13:00:06;;;;;;;;;;;17.00;99.90;;;;;;5006960;28;20260;-82
2023/09/23 13:02:32;;;;;;;;;;;16.90;99.90;;;;;;5005312;28;20321;-81
2023/09/23 13:04:58;;;;;;;;;;;16.90;99.90;;;;;;5009210;28;20271;-81
2023/09/23 13:07:24;;;;;;;;;;;16.80;99.90;;;;;;5007874;27;19928;-80
2023/09/23 13:09:50;;;;;;;;;;;16.80;99.90;;;;;;5007854;28;20287;-82
2023/09/23 13:12:15;;;;;;;;;;;16.70;99.90;;;;;;5009974;28;20015;-82
2023/09/23 13:14:41;;;;;;;;;;;16.60;99.90;;;;;;5007027;28;19925;-82
2023/09/23 13:17:06;;;;;;;;;;;16.50;99.90;;;;;;5025595;28;19931;-82
2023/09/23 13:19:33;;;;;;;;;;;16.40;99.90;;;;;;5022720;28;20413;-79
2023/09/23 13:21:59;;;;;;;;;;;16.30;99.90;;;;;;5020979;28;19925;-79
2023/09/23 13:24:28;;;;;;;;;;;16.10;99.90;;;;;;5002359;28;20415;-82
2023/09/23 13:26:53;;;;;;;;;;;16.00;99.90;;;;;;5008664;28;19973;-82
2023/09/23 13:29:19;;;;;;;;;;;15.90;99.90;;;;;;5007873;28;20792;-82
2023/09/23 13:31:44;;;;;;;;;;;15.80;99.90;;;;;;5017778;28;20374;-82
2023/09/23 13:34:10;;;;;;;;;;;15.80;99.90;;;;;;5012452;28;19920;-82
2023/09/23 13:36:36;;;;;;;;;;;15.80;99.90;;;;;;5004651;28;19925;-83
2023/09/23 13:39:04;;;;;;;;;;;15.90;99.90;;;;;;5005689;28;19920;-82
2023/09/23 13:41:30;;;;;;;;;;;16.00;99.90;;;;;;5021832;28;19925;-82
2023/09/23 13:43:56;;;;;;;;;;;16.00;99.90;;;;;;5022737;28;20405;-82
2023/09/23 13:46:22;;;;;;;;;;;16.00;99.90;;;;;;5004223;28;19920;-82
2023/09/23 13:48:47;;;;;;;;;;;16.00;99.90;;;;;;5022305;28;19947;-82
2023/09/23 13:51:13;;;;;;;;;;;16.00;99.90;;;;;;5006921;28;19927;-75
2023/09/23 13:53:39;;;;;;;;;;;16.00;99.90;;;;;;5006648;28;20019;-74
2023/09/23 13:56:04;;;;;;;;;;;15.90;99.90;;;;;;5003403;27;19925;-75
2023/09/23 13:58:30;;;;;;;;;;;15.90;99.90;;;;;;5021056;28;19927;-83
2023/09/23 14:00:56;;;;;;;;;;;16.00;99.90;;;;;;5019583;28;20328;-82
2023/09/23 14:03:21;;;;;;;;;;;16.00;99.90;;;;;;5022621;28;20061;-82
2023/09/23 14:05:47;;;;;;;;;;;16.10;99.90;;;;;;5021872;28;20430;-82
2023/09/23 14:08:12;;;;;;;;;;;16.20;99.90;;;;;;5002873;28;19920;-82
2023/09/23 14:10:41;;;;;;;;;;;16.40;99.90;;;;;;5026176;28;20371;-82
2023/09/23 14:13:07;;;;;;;;;;;16.40;99.90;;;;;;5029570;28;19920;-82